M.sahin — TCUH — position and weather

sailwx.info

Track history (hours):
 
Tides and Currents Weather Stations Pressure Air Temp Water Temp Dewpoint Dewpoint Depression Visibility Wind Speed Wind Dir Waves Ship Positions

M.sahin

Last reported at 2017-Jul-20 21:33 UTC. Time now 2017-Jul-23 00:55 UTC.
Position N 44°29' E 037°29'.

Length 87 m; draft 5.5 m.

Type: Cargo ship. MMSI: 271000450.

Date/timePositionNaut miles runAvg speedWind from/ knotsBaromVisibWave heightAir tempDewpointWater temp
2017-Jul-20 21:33N 44°29' E 037°29'1 8.9
2017-Jul-20 21:28N 44°30' E 037°30'4 8.7
2017-Jul-20 21:00N 44°32' E 037°35'4 8.8
2017-Jul-20 20:31N 44°35' E 037°39'5 9.5
2017-Jul-20 20:01N 44°36' E 037°46'5 9.4
2017-Jul-20 19:30N 44°39' E 037°50'4 7.8
2017-Jul-20 19:00N 44°43' E 037°49'2 3.2
2017-Jul-20 18:29N 44°44' E 037°47'0 0.0
2017-Jul-20 17:58N 44°44' E 037°47'0 0.0
2017-Jul-20 17:29N 44°44' E 037°47'0 0.0
2017-Jul-20 16:59N 44°44' E 037°47'0 0.0
2017-Jul-20 16:29N 44°44' E 037°47'0 0.0
2017-Jul-20 15:56N 44°44' E 037°47'0 0.0
2017-Jul-20 15:28N 44°44' E 037°47'0 0.0
2017-Jul-20 14:54N 44°44' E 037°47'0 0.0
2017-Jul-20 13:59N 44°44' E 037°47'0 0.0
2017-Jul-20 13:30N 44°44' E 037°47'0 0.0
2017-Jul-20 13:00N 44°44' E 037°47'0 0.0
2017-Jul-20 12:28N 44°44' E 037°47'0 0.0
2017-Jul-20 12:00N 44°44' E 037°47'0 0.0
2017-Jul-20 11:25N 44°44' E 037°47'0 0.0
2017-Jul-20 11:00N 44°44' E 037°47'0 0.0
2017-Jul-20 10:28N 44°44' E 037°47'0 0.0
2017-Jul-20 09:59N 44°44' E 037°47'0 0.0
2017-Jul-20 09:29N 44°44' E 037°47'0 0.0
2017-Jul-20 09:00N 44°44' E 037°47'0 0.0
2017-Jul-20 08:28N 44°44' E 037°47'0 0.0
2017-Jul-20 08:00N 44°44' E 037°47'0 0.0
2017-Jul-20 07:22N 44°44' E 037°47'0 0.0
2017-Jul-20 07:00N 44°44' E 037°47'0 0.0
2017-Jul-20 06:28N 44°44' E 037°47'0 0.0
2017-Jul-20 05:58N 44°44' E 037°47'0 0.0
2017-Jul-20 05:25N 44°44' E 037°47'0 0.0
2017-Jul-20 05:00N 44°44' E 037°47'0 0.0
2017-Jul-20 04:28N 44°44' E 037°47'0 0.0
2017-Jul-20 03:58N 44°44' E 037°47'0 0.0
2017-Jul-20 03:30N 44°44' E 037°47'0 0.0
2017-Jul-20 02:59N 44°44' E 037°47'0 0.0
2017-Jul-20 02:29N 44°44' E 037°47'0 0.0
2017-Jul-20 01:59N 44°44' E 037°47'0 0.0
2017-Jul-20 01:24N 44°44' E 037°47'0 0.0
2017-Jul-20 00:55N 44°44' E 037°47'0 0.0
2017-Jul-20 00:28N 44°44' E 037°47'0 0.0
2017-Jul-19 23:58N 44°44' E 037°47'0 0.0
2017-Jul-19 23:28N 44°44' E 037°47'0 0.0
2017-Jul-19 23:00N 44°44' E 037°47'0 0.0
2017-Jul-19 22:28N 44°44' E 037°47'0 0.0
2017-Jul-19 21:59N 44°44' E 037°47'0 0.0
2017-Jul-19 21:28N 44°44' E 037°47'0 0.0
2017-Jul-19 20:58N 44°44' E 037°47'0 0.0
2017-Jul-19 20:30N 44°44' E 037°47'0 0.0
2017-Jul-19 20:00N 44°44' E 037°47'0 0.0
2017-Jul-19 19:30N 44°44' E 037°47'0 0.0
2017-Jul-19 18:55N 44°44' E 037°47'0 0.0
2017-Jul-19 18:29N 44°44' E 037°47'0 0.0
2017-Jul-19 17:56N 44°44' E 037°47'0 0.0
2017-Jul-19 17:28N 44°44' E 037°47'0 0.0
2017-Jul-19 17:00N 44°44' E 037°47'0 0.0
2017-Jul-19 16:30N 44°44' E 037°47'0 0.0
2017-Jul-19 15:58N 44°44' E 037°47'0 0.0
2017-Jul-19 15:28N 44°44' E 037°47'0 0.0
2017-Jul-19 15:00N 44°44' E 037°47'0 0.0
2017-Jul-19 14:28N 44°44' E 037°47'0 0.0
2017-Jul-19 13:58N 44°44' E 037°47'0 0.0
2017-Jul-19 13:23N 44°44' E 037°47'0 0.0
2017-Jul-19 12:55N 44°44' E 037°47'0 0.0
2017-Jul-19 12:23N 44°44' E 037°47'0 0.0
2017-Jul-19 11:59N 44°44' E 037°47'0 0.0
2017-Jul-19 11:25N 44°44' E 037°47'0 0.0
2017-Jul-19 10:58N 44°44' E 037°47'0 0.0
2017-Jul-19 10:28N 44°44' E 037°47'0 0.0
2017-Jul-19 09:59N 44°44' E 037°47'0 0.0
2017-Jul-19 09:30N 44°44' E 037°47'0 0.0
2017-Jul-19 08:55N 44°44' E 037°47'0 0.0
2017-Jul-19 08:29N 44°44' E 037°47'0 0.0
2017-Jul-19 07:58N 44°44' E 037°47'0 0.0
2017-Jul-19 07:22N 44°44' E 037°47'0 0.0
2017-Jul-19 06:56N 44°44' E 037°47'0 0.0
2017-Jul-19 06:30N 44°44' E 037°47'0 0.0
2017-Jul-19 05:58N 44°44' E 037°47'0 0.0
2017-Jul-19 05:30N 44°44' E 037°47'0 0.0
2017-Jul-19 04:58N 44°44' E 037°47'0 0.0
2017-Jul-19 04:30N 44°44' E 037°47'0 0.0
2017-Jul-19 03:55N 44°44' E 037°47'0 0.0
2017-Jul-19 03:29N 44°44' E 037°47'0 0.0
2017-Jul-19 02:59N 44°44' E 037°47'0 0.0
2017-Jul-19 02:29N 44°44' E 037°47'0 0.0
2017-Jul-19 01:56N 44°44' E 037°47'0 0.0
2017-Jul-19 01:28N 44°44' E 037°47'0 0.0
2017-Jul-19 00:55N 44°44' E 037°47'0 0.0
2017-Jul-19 00:26N 44°44' E 037°47'0 0.0
2017-Jul-18 23:59N 44°44' E 037°47'0 0.0
2017-Jul-18 23:28N 44°44' E 037°47'0 0.0
2017-Jul-18 23:00N 44°44' E 037°47'0 0.0
2017-Jul-18 22:29N 44°44' E 037°47'0 0.0
2017-Jul-18 21:59N 44°44' E 037°47'0 0.0
2017-Jul-18 21:24N 44°44' E 037°47'0 0.0
2017-Jul-18 21:00N 44°44' E 037°47'0 0.0
2017-Jul-18 20:29N 44°44' E 037°47'0 0.0
2017-Jul-18 19:58N 44°44' E 037°47'0 0.0
2017-Jul-18 19:26N 44°44' E 037°47'0 0.0
2017-Jul-18 18:53N 44°44' E 037°47'0 0.0
2017-Jul-18 18:29N 44°44' E 037°47'0 0.0
2017-Jul-18 17:59N 44°44' E 037°47'0 0.0
2017-Jul-18 17:29N 44°44' E 037°47'0 0.0
2017-Jul-18 16:57N 44°44' E 037°47'0 0.0
2017-Jul-18 16:29N 44°44' E 037°47'0 0.0
2017-Jul-18 15:57N 44°44' E 037°47'0 0.0
2017-Jul-18 15:27N 44°44' E 037°47'0 0.0
2017-Jul-18 14:54N 44°44' E 037°47'0 0.0
2017-Jul-18 13:57N 44°44' E 037°47'0 0.0
2017-Jul-18 13:29N 44°44' E 037°47'0 0.0
2017-Jul-18 12:56N 44°44' E 037°47'0 0.0
2017-Jul-18 12:28N 44°44' E 037°47'0 0.0
2017-Jul-18 12:00N 44°44' E 037°47'0 0.0
2017-Jul-18 11:30N 44°44' E 037°47'0 0.0
2017-Jul-18 10:55N 44°44' E 037°47'0 0.0
2017-Jul-18 10:30N 44°44' E 037°47'0 0.0
2017-Jul-18 09:59N 44°44' E 037°47'0 0.0
2017-Jul-18 09:27N 44°44' E 037°47'0 0.0
2017-Jul-18 08:59N 44°44' E 037°47'0 0.0
2017-Jul-18 08:26N 44°44' E 037°47'0 0.0
2017-Jul-18 08:00N 44°44' E 037°47'0 0.0
2017-Jul-18 07:25N 44°44' E 037°47'0 0.0
2017-Jul-18 06:58N 44°44' E 037°47'0 0.0
2017-Jul-18 06:27N 44°44' E 037°47'0 0.0
2017-Jul-18 05:58N 44°44' E 037°47'0 0.0
2017-Jul-18 05:27N 44°44' E 037°47'0 0.0
2017-Jul-18 04:54N 44°44' E 037°47'0 0.0
2017-Jul-18 04:29N 44°44' E 037°47'0 0.0
2017-Jul-18 03:59N 44°44' E 037°47'0 0.0
2017-Jul-18 03:29N 44°44' E 037°47'0 0.0
2017-Jul-18 02:58N 44°44' E 037°47'0 0.0
2017-Jul-18 02:28N 44°44' E 037°47'0 0.0
2017-Jul-18 02:00N 44°44' E 037°47'0 0.0
2017-Jul-18 01:26N 44°44' E 037°47'0 0.0
2017-Jul-18 00:58N 44°44' E 037°47'0 0.0
2017-Jul-18 00:30N 44°44' E 037°47'0 0.0
2017-Jul-18 00:00N 44°44' E 037°47'0 0.0
2017-Jul-17 23:29N 44°44' E 037°47'0 0.0
2017-Jul-17 22:55N 44°44' E 037°47'0 0.0
2017-Jul-17 22:30N 44°44' E 037°47'0 0.0
2017-Jul-17 21:59N 44°44' E 037°47'0 0.0
2017-Jul-17 21:25N 44°44' E 037°47'0 0.0
2017-Jul-17 21:00N 44°44' E 037°47'0 0.0
2017-Jul-17 20:23N 44°44' E 037°47'0 0.0
2017-Jul-17 19:58N 44°44' E 037°47'0 0.0
2017-Jul-17 19:30N 44°44' E 037°47'0 0.0
2017-Jul-17 18:59N 44°44' E 037°47'0 0.0
2017-Jul-17 18:29N 44°44' E 037°47'0 0.0
2017-Jul-17 17:58N 44°44' E 037°47'0 0.0
2017-Jul-17 17:30N 44°44' E 037°47'0 0.0
2017-Jul-17 17:00N 44°44' E 037°47'0 0.0
2017-Jul-17 16:28N 44°44' E 037°47'0 0.0
2017-Jul-17 15:57N 44°44' E 037°47'0 0.0
2017-Jul-17 15:29N 44°44' E 037°47'0 0.0
2017-Jul-17 15:00N 44°44' E 037°47'0 0.0
2017-Jul-17 14:29N 44°44' E 037°47'0 0.0
2017-Jul-17 14:00N 44°44' E 037°47'0 0.0
2017-Jul-17 13:28N 44°44' E 037°47'0 0.0
2017-Jul-17 12:58N 44°44' E 037°47'0 0.0
2017-Jul-17 12:29N 44°44' E 037°47'0 0.0
2017-Jul-17 11:58N 44°44' E 037°47'0 0.0
2017-Jul-17 11:29N 44°44' E 037°47'0 0.0
2017-Jul-17 11:00N 44°44' E 037°47'0 0.0
2017-Jul-17 10:30N 44°44' E 037°47'0 0.0
2017-Jul-17 09:57N 44°44' E 037°47'0 0.0
2017-Jul-17 09:30N 44°44' E 037°47'0 0.0
2017-Jul-17 08:59N 44°44' E 037°47'0 0.0
2017-Jul-17 08:28N 44°44' E 037°47'0 0.0
2017-Jul-17 07:58N 44°44' E 037°47'0 0.0
2017-Jul-17 07:28N 44°44' E 037°47'2 3.8
2017-Jul-17 07:01N 44°43' E 037°49'5 9.3
2017-Jul-17 06:31N 44°38' E 037°52'2 3.5
2017-Jul-17 06:01N 44°40' E 037°53'0 0.1
2017-Jul-17 05:24N 44°40' E 037°53'0 0.0
2017-Jul-17 05:00N 44°40' E 037°53'0 0.0
2017-Jul-17 04:26N 44°40' E 037°53'0 0.0
2017-Jul-17 03:59N 44°40' E 037°53'0 0.0
2017-Jul-17 03:29N 44°40' E 037°53'0 0.1
2017-Jul-17 02:53N 44°40' E 037°53'0 0.0
2017-Jul-17 02:30N 44°40' E 037°53'0 0.1
2017-Jul-17 01:58N 44°40' E 037°53'0 0.2
2017-Jul-17 01:27N 44°40' E 037°53'0 0.0
2017-Jul-17 00:57N 44°40' E 037°53'0 0.0
2017-Jul-17 00:30N 44°40' E 037°53'0 0.2
2017-Jul-17 00:00N 44°40' E 037°53'0 0.0
2017-Jul-16 23:29N 44°40' E 037°53'0 0.1
2017-Jul-16 22:59N 44°40' E 037°53'0 0.0
2017-Jul-16 22:30N 44°40' E 037°53'0 0.0
2017-Jul-16 21:59N 44°40' E 037°53'0 0.0
2017-Jul-16 21:29N 44°40' E 037°53'0 0.0
2017-Jul-16 20:58N 44°40' E 037°53'0 0.0
2017-Jul-16 20:29N 44°40' E 037°53'0 0.1
2017-Jul-16 19:59N 44°40' E 037°53'0 0.1
2017-Jul-16 19:29N 44°40' E 037°53'0 0.0
2017-Jul-16 18:56N 44°40' E 037°53'0 0.0
2017-Jul-16 18:28N 44°40' E 037°53'0 0.0
2017-Jul-16 17:58N 44°40' E 037°53'0 0.0
2017-Jul-16 17:29N 44°40' E 037°53'0 0.0
2017-Jul-16 16:54N 44°40' E 037°53'0 0.0
2017-Jul-16 16:28N 44°40' E 037°53'0 0.1
2017-Jul-16 16:00N 44°40' E 037°53'0 0.0
2017-Jul-16 15:28N 44°40' E 037°53'2 4.0
2017-Jul-16 15:00N 44°38' E 037°53'5 9.0
2017-Jul-16 14:30N 44°34' E 037°49'5 9.3
2017-Jul-16 14:00N 44°32' E 037°43'5 9.8
2017-Jul-16 13:30N 44°32' E 037°37'5 9.9
2017-Jul-16 13:00N 44°31' E 037°30'  
Track history (hours):
 
Tides and Currents Weather Stations Pressure Air Temp Water Temp Dewpoint Dewpoint Depression Visibility Wind Speed Wind Dir Waves Ship Positions

M.sahin

Last reported at 2017-Jul-20 21:33 UTC. Time now 2017-Jul-23 00:55 UTC.
Position N 44°29' E 037°29'.

Length 87 m; draft 5.5 m.

Type: Cargo ship. MMSI: 271000450.

Date/timePositionNaut miles runAvg speedWind from/ knotsBaromVisibWave heightAir tempDewpointWater temp
2017-Jul-20 21:33N 44°29' E 037°29'1 8.9
2017-Jul-20 21:28N 44°30' E 037°30'4 8.7
2017-Jul-20 21:00N 44°32' E 037°35'4 8.8
2017-Jul-20 20:31N 44°35' E 037°39'5 9.5
2017-Jul-20 20:01N 44°36' E 037°46'5 9.4
2017-Jul-20 19:30N 44°39' E 037°50'4 7.8
2017-Jul-20 19:00N 44°43' E 037°49'2 3.2
2017-Jul-20 18:29N 44°44' E 037°47'0 0.0
2017-Jul-20 17:58N 44°44' E 037°47'0 0.0
2017-Jul-20 17:29N 44°44' E 037°47'0 0.0
2017-Jul-20 16:59N 44°44' E 037°47'0 0.0
2017-Jul-20 16:29N 44°44' E 037°47'0 0.0
2017-Jul-20 15:56N 44°44' E 037°47'0 0.0
2017-Jul-20 15:28N 44°44' E 037°47'0 0.0
2017-Jul-20 14:54N 44°44' E 037°47'0 0.0
2017-Jul-20 13:59N 44°44' E 037°47'0 0.0
2017-Jul-20 13:30N 44°44' E 037°47'0 0.0
2017-Jul-20 13:00N 44°44' E 037°47'0 0.0
2017-Jul-20 12:28N 44°44' E 037°47'0 0.0
2017-Jul-20 12:00N 44°44' E 037°47'0 0.0
2017-Jul-20 11:25N 44°44' E 037°47'0 0.0
2017-Jul-20 11:00N 44°44' E 037°47'0 0.0
2017-Jul-20 10:28N 44°44' E 037°47'0 0.0
2017-Jul-20 09:59N 44°44' E 037°47'0 0.0
2017-Jul-20 09:29N 44°44' E 037°47'0 0.0
2017-Jul-20 09:00N 44°44' E 037°47'0 0.0
2017-Jul-20 08:28N 44°44' E 037°47'0 0.0
2017-Jul-20 08:00N 44°44' E 037°47'0 0.0
2017-Jul-20 07:22N 44°44' E 037°47'0 0.0
2017-Jul-20 07:00N 44°44' E 037°47'0 0.0
2017-Jul-20 06:28N 44°44' E 037°47'0 0.0
2017-Jul-20 05:58N 44°44' E 037°47'0 0.0
2017-Jul-20 05:25N 44°44' E 037°47'0 0.0
2017-Jul-20 05:00N 44°44' E 037°47'0 0.0
2017-Jul-20 04:28N 44°44' E 037°47'0 0.0
2017-Jul-20 03:58N 44°44' E 037°47'0 0.0
2017-Jul-20 03:30N 44°44' E 037°47'0 0.0
2017-Jul-20 02:59N 44°44' E 037°47'0 0.0
2017-Jul-20 02:29N 44°44' E 037°47'0 0.0
2017-Jul-20 01:59N 44°44' E 037°47'0 0.0
2017-Jul-20 01:24N 44°44' E 037°47'0 0.0
2017-Jul-20 00:55N 44°44' E 037°47'0 0.0
2017-Jul-20 00:28N 44°44' E 037°47'0 0.0
2017-Jul-19 23:58N 44°44' E 037°47'0 0.0
2017-Jul-19 23:28N 44°44' E 037°47'0 0.0
2017-Jul-19 23:00N 44°44' E 037°47'0 0.0
2017-Jul-19 22:28N 44°44' E 037°47'0 0.0
2017-Jul-19 21:59N 44°44' E 037°47'0 0.0
2017-Jul-19 21:28N 44°44' E 037°47'0 0.0
2017-Jul-19 20:58N 44°44' E 037°47'0 0.0
2017-Jul-19 20:30N 44°44' E 037°47'0 0.0
2017-Jul-19 20:00N 44°44' E 037°47'0 0.0
2017-Jul-19 19:30N 44°44' E 037°47'0 0.0
2017-Jul-19 18:55N 44°44' E 037°47'0 0.0
2017-Jul-19 18:29N 44°44' E 037°47'0 0.0
2017-Jul-19 17:56N 44°44' E 037°47'0 0.0
2017-Jul-19 17:28N 44°44' E 037°47'0 0.0
2017-Jul-19 17:00N 44°44' E 037°47'0 0.0
2017-Jul-19 16:30N 44°44' E 037°47'0 0.0
2017-Jul-19 15:58N 44°44' E 037°47'0 0.0
2017-Jul-19 15:28N 44°44' E 037°47'0 0.0
2017-Jul-19 15:00N 44°44' E 037°47'0 0.0
2017-Jul-19 14:28N 44°44' E 037°47'0 0.0
2017-Jul-19 13:58N 44°44' E 037°47'0 0.0
2017-Jul-19 13:23N 44°44' E 037°47'0 0.0
2017-Jul-19 12:55N 44°44' E 037°47'0 0.0
2017-Jul-19 12:23N 44°44' E 037°47'0 0.0
2017-Jul-19 11:59N 44°44' E 037°47'0 0.0
2017-Jul-19 11:25N 44°44' E 037°47'0 0.0
2017-Jul-19 10:58N 44°44' E 037°47'0 0.0
2017-Jul-19 10:28N 44°44' E 037°47'0 0.0
2017-Jul-19 09:59N 44°44' E 037°47'0 0.0
2017-Jul-19 09:30N 44°44' E 037°47'0 0.0
2017-Jul-19 08:55N 44°44' E 037°47'0 0.0
2017-Jul-19 08:29N 44°44' E 037°47'0 0.0
2017-Jul-19 07:58N 44°44' E 037°47'0 0.0
2017-Jul-19 07:22N 44°44' E 037°47'0 0.0
2017-Jul-19 06:56N 44°44' E 037°47'0 0.0
2017-Jul-19 06:30N 44°44' E 037°47'0 0.0
2017-Jul-19 05:58N 44°44' E 037°47'0 0.0
2017-Jul-19 05:30N 44°44' E 037°47'0 0.0
2017-Jul-19 04:58N 44°44' E 037°47'0 0.0
2017-Jul-19 04:30N 44°44' E 037°47'0 0.0
2017-Jul-19 03:55N 44°44' E 037°47'0 0.0
2017-Jul-19 03:29N 44°44' E 037°47'0 0.0
2017-Jul-19 02:59N 44°44' E 037°47'0 0.0
2017-Jul-19 02:29N 44°44' E 037°47'0 0.0
2017-Jul-19 01:56N 44°44' E 037°47'0 0.0
2017-Jul-19 01:28N 44°44' E 037°47'0 0.0
2017-Jul-19 00:55N 44°44' E 037°47'0 0.0
2017-Jul-19 00:26N 44°44' E 037°47'0 0.0
2017-Jul-18 23:59N 44°44' E 037°47'0 0.0
2017-Jul-18 23:28N 44°44' E 037°47'0 0.0
2017-Jul-18 23:00N 44°44' E 037°47'0 0.0
2017-Jul-18 22:29N 44°44' E 037°47'0 0.0
2017-Jul-18 21:59N 44°44' E 037°47'0 0.0
2017-Jul-18 21:24N 44°44' E 037°47'0 0.0
2017-Jul-18 21:00N 44°44' E 037°47'0 0.0
2017-Jul-18 20:29N 44°44' E 037°47'0 0.0
2017-Jul-18 19:58N 44°44' E 037°47'0 0.0
2017-Jul-18 19:26N 44°44' E 037°47'0 0.0
2017-Jul-18 18:53N 44°44' E 037°47'0 0.0
2017-Jul-18 18:29N 44°44' E 037°47'0 0.0
2017-Jul-18 17:59N 44°44' E 037°47'0 0.0
2017-Jul-18 17:29N 44°44' E 037°47'0 0.0
2017-Jul-18 16:57N 44°44' E 037°47'0 0.0
2017-Jul-18 16:29N 44°44' E 037°47'0 0.0
2017-Jul-18 15:57N 44°44' E 037°47'0 0.0
2017-Jul-18 15:27N 44°44' E 037°47'0 0.0
2017-Jul-18 14:54N 44°44' E 037°47'0 0.0
2017-Jul-18 13:57N 44°44' E 037°47'0 0.0
2017-Jul-18 13:29N 44°44' E 037°47'0 0.0
2017-Jul-18 12:56N 44°44' E 037°47'0 0.0
2017-Jul-18 12:28N 44°44' E 037°47'0 0.0
2017-Jul-18 12:00N 44°44' E 037°47'0 0.0
2017-Jul-18 11:30N 44°44' E 037°47'0 0.0
2017-Jul-18 10:55N 44°44' E 037°47'0 0.0
2017-Jul-18 10:30N 44°44' E 037°47'0 0.0
2017-Jul-18 09:59N 44°44' E 037°47'0 0.0
2017-Jul-18 09:27N 44°44' E 037°47'0 0.0
2017-Jul-18 08:59N 44°44' E 037°47'0 0.0
2017-Jul-18 08:26N 44°44' E 037°47'0 0.0
2017-Jul-18 08:00N 44°44' E 037°47'0 0.0
2017-Jul-18 07:25N 44°44' E 037°47'0 0.0
2017-Jul-18 06:58N 44°44' E 037°47'0 0.0
2017-Jul-18 06:27N 44°44' E 037°47'0 0.0
2017-Jul-18 05:58N 44°44' E 037°47'0 0.0
2017-Jul-18 05:27N 44°44' E 037°47'0 0.0
2017-Jul-18 04:54N 44°44' E 037°47'0 0.0
2017-Jul-18 04:29N 44°44' E 037°47'0 0.0
2017-Jul-18 03:59N 44°44' E 037°47'0 0.0
2017-Jul-18 03:29N 44°44' E 037°47'0 0.0
2017-Jul-18 02:58N 44°44' E 037°47'0 0.0
2017-Jul-18 02:28N 44°44' E 037°47'0 0.0
2017-Jul-18 02:00N 44°44' E 037°47'0 0.0
2017-Jul-18 01:26N 44°44' E 037°47'0 0.0
2017-Jul-18 00:58N 44°44' E 037°47'0 0.0
2017-Jul-18 00:30N 44°44' E 037°47'0 0.0
2017-Jul-18 00:00N 44°44' E 037°47'0 0.0
2017-Jul-17 23:29N 44°44' E 037°47'0 0.0
2017-Jul-17 22:55N 44°44' E 037°47'0 0.0
2017-Jul-17 22:30N 44°44' E 037°47'0 0.0
2017-Jul-17 21:59N 44°44' E 037°47'0 0.0
2017-Jul-17 21:25N 44°44' E 037°47'0 0.0
2017-Jul-17 21:00N 44°44' E 037°47'0 0.0
2017-Jul-17 20:23N 44°44' E 037°47'0 0.0
2017-Jul-17 19:58N 44°44' E 037°47'0 0.0
2017-Jul-17 19:30N 44°44' E 037°47'0 0.0
2017-Jul-17 18:59N 44°44' E 037°47'0 0.0
2017-Jul-17 18:29N 44°44' E 037°47'0 0.0
2017-Jul-17 17:58N 44°44' E 037°47'0 0.0
2017-Jul-17 17:30N 44°44' E 037°47'0 0.0
2017-Jul-17 17:00N 44°44' E 037°47'0 0.0
2017-Jul-17 16:28N 44°44' E 037°47'0 0.0
2017-Jul-17 15:57N 44°44' E 037°47'0 0.0
2017-Jul-17 15:29N 44°44' E 037°47'0 0.0
2017-Jul-17 15:00N 44°44' E 037°47'0 0.0
2017-Jul-17 14:29N 44°44' E 037°47'0 0.0
2017-Jul-17 14:00N 44°44' E 037°47'0 0.0
2017-Jul-17 13:28N 44°44' E 037°47'0 0.0
2017-Jul-17 12:58N 44°44' E 037°47'0 0.0
2017-Jul-17 12:29N 44°44' E 037°47'0 0.0
2017-Jul-17 11:58N 44°44' E 037°47'0 0.0
2017-Jul-17 11:29N 44°44' E 037°47'0 0.0
2017-Jul-17 11:00N 44°44' E 037°47'0 0.0
2017-Jul-17 10:30N 44°44' E 037°47'0 0.0
2017-Jul-17 09:57N 44°44' E 037°47'0 0.0
2017-Jul-17 09:30N 44°44' E 037°47'0 0.0
2017-Jul-17 08:59N 44°44' E 037°47'0 0.0
2017-Jul-17 08:28N 44°44' E 037°47'0 0.0
2017-Jul-17 07:58N 44°44' E 037°47'0 0.0
2017-Jul-17 07:28N 44°44' E 037°47'2 3.8
2017-Jul-17 07:01N 44°43' E 037°49'5 9.3
2017-Jul-17 06:31N 44°38' E 037°52'2 3.5
2017-Jul-17 06:01N 44°40' E 037°53'0 0.1
2017-Jul-17 05:24N 44°40' E 037°53'0 0.0
2017-Jul-17 05:00N 44°40' E 037°53'0 0.0
2017-Jul-17 04:26N 44°40' E 037°53'0 0.0
2017-Jul-17 03:59N 44°40' E 037°53'0 0.0
2017-Jul-17 03:29N 44°40' E 037°53'0 0.1
2017-Jul-17 02:53N 44°40' E 037°53'0 0.0
2017-Jul-17 02:30N 44°40' E 037°53'0 0.1
2017-Jul-17 01:58N 44°40' E 037°53'0 0.2
2017-Jul-17 01:27N 44°40' E 037°53'0 0.0
2017-Jul-17 00:57N 44°40' E 037°53'0 0.0
2017-Jul-17 00:30N 44°40' E 037°53'0 0.2
2017-Jul-17 00:00N 44°40' E 037°53'0 0.0
2017-Jul-16 23:29N 44°40' E 037°53'0 0.1
2017-Jul-16 22:59N 44°40' E 037°53'0 0.0
2017-Jul-16 22:30N 44°40' E 037°53'0 0.0
2017-Jul-16 21:59N 44°40' E 037°53'0 0.0
2017-Jul-16 21:29N 44°40' E 037°53'0 0.0
2017-Jul-16 20:58N 44°40' E 037°53'0 0.0
2017-Jul-16 20:29N 44°40' E 037°53'0 0.1
2017-Jul-16 19:59N 44°40' E 037°53'0 0.1
2017-Jul-16 19:29N 44°40' E 037°53'0 0.0
2017-Jul-16 18:56N 44°40' E 037°53'0 0.0
2017-Jul-16 18:28N 44°40' E 037°53'0 0.0
2017-Jul-16 17:58N 44°40' E 037°53'0 0.0
2017-Jul-16 17:29N 44°40' E 037°53'0 0.0
2017-Jul-16 16:54N 44°40' E 037°53'0 0.0
2017-Jul-16 16:28N 44°40' E 037°53'0 0.1
2017-Jul-16 16:00N 44°40' E 037°53'0 0.0
2017-Jul-16 15:28N 44°40' E 037°53'2 4.0
2017-Jul-16 15:00N 44°38' E 037°53'5 9.0
2017-Jul-16 14:30N 44°34' E 037°49'5 9.3
2017-Jul-16 14:00N 44°32' E 037°43'5 9.8
2017-Jul-16 13:30N 44°32' E 037°37'5 9.9
2017-Jul-16 13:00N 44°31' E 037°30'  

Dump ship's entire track history